Kezdőlap
METAR-TAF:

METAR-TAF

Repülőterek :

Kunming, Kína

földrajzi szélesség: 25-01N, földrajzi hosszúság: 102-41E, magasság: 1892 m

Jelenlegi meteorológiai megfigyelések

A jelentés 25 perccel ezelõtt készült, 07:00 UTC
Dél-délnyugati szél 14 kt
Hőmérséklet 24°C
Páratartalom 69%
Légköri nyomás 1017 hPa
Látótávolság 10 km, vagy több
Kevés felhő 2600 lábon, Tornyos gomolyfelhő.
Szórványos felhőzet 2600 lábon
Szórványos felhőzet 4000 lábon

METAR: ZPPP 300700Z 21007MPS 9999 FEW026TCU SCT026 SCT040 24/18 Q1017 NOSIG

Idő: 15:25 (07:25 UTC)

Előrejelzés

A jelentés 4 órával és 10 perccel ezelõtt készült, 03:15 UTC
Az előrejelzés 30-én 06 óra UTC és 01-én 06 óra UTC között érvényes
Délnyugati szél 8 kt
Látótávolság: 8000 m
Szórványos felhőzet 2000 lábon
Szakadozott felhőzet 3300 lábon

TAF: ZPPP 300315Z 3006/0106 22004MPS 8000 SCT020 BKN033 TX22/3008Z TN16/3023Z

Meteorológiai megfigyelések és előrejelzések több, mint 4000 repülőtéren (METAR és TAF jelentéseket).

A térképen piros és sárga pontok jelzik az elérhető meteorológiai állomásokat.

Mozgassa az egeret a pont fölött, hogy megjelenjen az állomás neve.

Azután kattintson az időjárási megfigyelések és előrejelzések megtekintéséhez.

A térkép megváltoztatása: kattintson a fekete keresztel jelölt zöld gombra ráközelítéshez, a vonallal jelölt zöld gombra távolításhoz, vagy a zöld nyilakra a szomszédos térképek eléréséhez.


METAR-TAF: